Aeroporto :
LOGIN :

Iscrizione | Disclaimer

   EN    FR    IT 

 










Sommario :    VFR   VFR Marginale   IFR   IFR Intensivo   IFR Molto Intensivo
Visibilità : 
Base nubi : 
>= 8 km
>= 3000ft
5 / 8 km
1000 / 3000 ft
1500m / 5 km
500 / 1000 ft
800 / 1500m
200 / 500 ft
< 800m
< 200 ft
Simboli :   Temporali  Nebbia  Neve Forte  Precipitazioni Forti  Vento > 20 kt
SIGMETs :   Varie  Temporali  Ghiacco  Turbolenza  Onda orograficha  Ceneri Vulcaniche






- Altitudine del aeroporto : 1197 ft
- Codice IATA : SPM


ETAD - Spangdahlem Ab

ULTIMO METAR :
  • 162156Z AUTO 00000KT 9999 CLR 20/13 A2983 RMK AO2 SLP078 T02040126 $

METARs OBSOLETI :
  • 162056Z AUTO 00000KT 9999 CLR 22/13 A2983 RMK AO2 SLP078 T02150126 52011
  • 162011Z AUTO 29003KT 9999 SCT070 24/13 A2983 RMK AO2 SLP078 $

TAF TAF ETAD
Valido dal 16 a 20 ore il 18 a 02 ore UTC


162000Z 1620/1802 30008KT 9999 BKN070 BKN150 QNH2981INS
BECMG 1708/1709 330010KT 8000 -SHRA SCT020 BKN040 QNH2978INS
TEMPO 1709/1714 6000 BR VCTS BKN020CB
BECMG 1714/1715 36008KT 9999 NSW SCT030 BKN050 QNH2980INS
BECMG 1723/1724 02009KT 6000 BR BKN040 QNH2983INS TX27/1715Z TN16/1704Z



MetMap, La meteo Aeronautica in un colpo d'occhio ! - Copyright ORBIFLY Dicembre 2007 - Disclaimer

ORBIFLY MET'MAP TEAM :

Programmazione e sviluppo : Alexandra Zaïnal
Concezione : Baudouin d'Aumeries
Supporto tecnico e logistico : Manuel Goepfert
Aiuto : Marc-Olivier Méhu
Aiuto per la traduzione : Arnaldo La Scala




FONTI E CREDITI :

   NOAA